sensor_id;sensor_type;location;lat;lon;timestamp;temperature;humidity
34646;DHT22;20857;47.808;12.482;2023-04-01T00:00:50;8.60;99.90
34646;DHT22;20857;47.808;12.482;2023-04-01T00:03:17;8.70;99.90
34646;DHT22;20857;47.808;12.482;2023-04-01T00:05:43;8.80;99.90
34646;DHT22;20857;47.808;12.482;2023-04-01T00:08:08;8.80;99.90
34646;DHT22;20857;47.808;12.482;2023-04-01T00:10:34;8.90;99.90
34646;DHT22;20857;47.808;12.482;2023-04-01T00:12:59;9.60;99.90
34646;DHT22;20857;47.808;12.482;2023-04-01T00:15:25;9.00;99.90
34646;DHT22;20857;47.808;12.482;2023-04-01T00:17:51;9.50;99.90
34646;DHT22;20857;47.808;12.482;2023-04-01T00:20:16;9.40;99.90
34646;DHT22;20857;47.808;12.482;2023-04-01T00:22:42;8.90;99.90
34646;DHT22;20857;47.808;12.482;2023-04-01T00:25:07;9.10;99.90
34646;DHT22;20857;47.808;12.482;2023-04-01T00:27:33;8.90;99.90
34646;DHT22;20857;47.808;12.482;2023-04-01T00:29:59;8.80;99.90
34646;DHT22;20857;47.808;12.482;2023-04-01T00:32:25;8.80;99.90
34646;DHT22;20857;47.808;12.482;2023-04-01T00:34:51;8.70;99.90
34646;DHT22;20857;47.808;12.482;2023-04-01T00:37:17;9.00;99.90
34646;DHT22;20857;47.808;12.482;2023-04-01T00:39:43;8.70;99.90
34646;DHT22;20857;47.808;12.482;2023-04-01T00:42:09;9.20;99.90
34646;DHT22;20857;47.808;12.482;2023-04-01T00:44:36;9.10;99.90
34646;DHT22;20857;47.808;12.482;2023-04-01T00:47:02;9.00;99.90
34646;DHT22;20857;47.808;12.482;2023-04-01T00:49:31;9.30;99.90
34646;DHT22;20857;47.808;12.482;2023-04-01T00:51:58;8.60;99.90
34646;DHT22;20857;47.808;12.482;2023-04-01T00:54:25;9.40;99.90
34646;DHT22;20857;47.808;12.482;2023-04-01T00:56:52;9.50;99.90
34646;DHT22;20857;47.808;12.482;2023-04-01T00:59:24;8.40;99.90
34646;DHT22;20857;47.808;12.482;2023-04-01T01:01:50;9.20;99.90
34646;DHT22;20857;47.808;12.482;2023-04-01T01:04:34;8.10;99.90
34646;DHT22;20857;47.808;12.482;2023-04-01T01:09:29;7.80;99.90
34646;DHT22;20857;47.808;12.482;2023-04-01T01:14:51;7.50;99.90
34646;DHT22;20857;47.808;12.482;2023-04-01T01:27:25;8.80;99.90
34646;DHT22;20857;47.808;12.482;2023-04-01T01:32:30;7.30;99.90
34646;DHT22;20857;47.808;12.482;2023-04-01T01:37:44;7.40;99.90
34646;DHT22;20857;47.808;12.482;2023-04-01T01:40:11;7.40;99.90
34646;DHT22;20857;47.808;12.482;2023-04-01T01:42:38;7.40;99.90
34646;DHT22;20857;47.808;12.482;2023-04-01T01:45:05;9.40;99.90
34646;DHT22;20857;47.808;12.482;2023-04-01T01:47:31;7.50;99.90
34646;DHT22;20857;47.808;12.482;2023-04-01T01:49:57;7.50;99.90
34646;DHT22;20857;47.808;12.482;2023-04-01T01:52:23;7.60;99.90
34646;DHT22;20857;47.808;12.482;2023-04-01T01:54:53;7.60;99.90
34646;DHT22;20857;47.808;12.482;2023-04-01T01:57:20;7.70;99.90
34646;DHT22;20857;47.808;12.482;2023-04-01T01:59:47;8.00;99.90
34646;DHT22;20857;47.808;12.482;2023-04-01T02:02:13;7.70;99.90
34646;DHT22;20857;47.808;12.482;2023-04-01T02:04:40;7.60;99.90
34646;DHT22;20857;47.808;12.482;2023-04-01T02:07:18;9.80;99.90
34646;DHT22;20857;47.808;12.482;2023-04-01T02:09:45;7.70;99.90
34646;DHT22;20857;47.808;12.482;2023-04-01T02:12:12;7.80;99.90
34646;DHT22;20857;47.808;12.482;2023-04-01T02:14:39;8.10;99.90
34646;DHT22;20857;47.808;12.482;2023-04-01T02:17:08;8.10;99.90
34646;DHT22;20857;47.808;12.482;2023-04-01T02:19:36;7.90;99.90
34646;DHT22;20857;47.808;12.482;2023-04-01T02:22:03;7.80;99.90
34646;DHT22;20857;47.808;12.482;2023-04-01T02:24:30;9.20;99.90
34646;DHT22;20857;47.808;12.482;2023-04-01T02:26:56;7.80;99.90
34646;DHT22;20857;47.808;12.482;2023-04-01T02:29:23;7.70;99.90
34646;DHT22;20857;47.808;12.482;2023-04-01T02:31:50;7.70;99.90
34646;DHT22;20857;47.808;12.482;2023-04-01T02:34:16;9.00;99.90
34646;DHT22;20857;47.808;12.482;2023-04-01T02:36:42;7.60;99.90
34646;DHT22;20857;47.808;12.482;2023-04-01T02:39:07;7.50;99.90
34646;DHT22;20857;47.808;12.482;2023-04-01T02:41:38;7.50;99.90
34646;DHT22;20857;47.808;12.482;2023-04-01T02:44:04;7.80;99.90
34646;DHT22;20857;47.808;12.482;2023-04-01T02:46:30;7.40;99.90
34646;DHT22;20857;47.808;12.482;2023-04-01T02:48:55;8.50;99.90
34646;DHT22;20857;47.808;12.482;2023-04-01T02:51:20;7.40;99.90
34646;DHT22;20857;47.808;12.482;2023-04-01T02:53:46;8.80;99.90
34646;DHT22;20857;47.808;12.482;2023-04-01T02:56:12;8.30;99.90
34646;DHT22;20857;47.808;12.482;2023-04-01T02:58:37;7.90;99.90
34646;DHT22;20857;47.808;12.482;2023-04-01T03:01:03;8.30;99.90
34646;DHT22;20857;47.808;12.482;2023-04-01T03:03:28;6.90;99.90
34646;DHT22;20857;47.808;12.482;2023-04-01T03:05:54;8.80;99.90
34646;DHT22;20857;47.808;12.482;2023-04-01T03:08:21;7.00;99.90
34646;DHT22;20857;47.808;12.482;2023-04-01T03:10:47;9.20;99.90
34646;DHT22;20857;47.808;12.482;2023-04-01T03:13:12;8.50;99.90
34646;DHT22;20857;47.808;12.482;2023-04-01T03:15:38;7.40;99.90
34646;DHT22;20857;47.808;12.482;2023-04-01T03:18:03;7.40;99.90
34646;DHT22;20857;47.808;12.482;2023-04-01T03:20:29;6.80;99.90
34646;DHT22;20857;47.808;12.482;2023-04-01T03:22:54;7.40;99.90
34646;DHT22;20857;47.808;12.482;2023-04-01T03:25:20;8.70;99.90
34646;DHT22;20857;47.808;12.482;2023-04-01T03:27:45;6.80;99.90
34646;DHT22;20857;47.808;12.482;2023-04-01T03:30:11;9.60;99.90
34646;DHT22;20857;47.808;12.482;2023-04-01T03:32:36;6.80;99.90
34646;DHT22;20857;47.808;12.482;2023-04-01T03:35:02;7.70;99.90
34646;DHT22;20857;47.808;12.482;2023-04-01T03:37:28;7.00;99.90
34646;DHT22;20857;47.808;12.482;2023-04-01T03:39:53;9.00;99.90
34646;DHT22;20857;47.808;12.482;2023-04-01T03:42:19;7.50;99.90
34646;DHT22;20857;47.808;12.482;2023-04-01T03:44:44;8.50;99.90
34646;DHT22;20857;47.808;12.482;2023-04-01T03:47:10;7.40;99.90
34646;DHT22;20857;47.808;12.482;2023-04-01T03:49:35;7.20;99.90
34646;DHT22;20857;47.808;12.482;2023-04-01T03:52:01;7.20;99.90
34646;DHT22;20857;47.808;12.482;2023-04-01T03:54:26;7.10;99.90
34646;DHT22;20857;47.808;12.482;2023-04-01T03:56:52;8.10;99.90
34646;DHT22;20857;47.808;12.482;2023-04-01T03:59:18;7.00;99.90
34646;DHT22;20857;47.808;12.482;2023-04-01T04:01:43;7.00;99.90
34646;DHT22;20857;47.808;12.482;2023-04-01T04:04:12;7.00;99.90
34646;DHT22;20857;47.808;12.482;2023-04-01T04:06:40;7.00;99.90
34646;DHT22;20857;47.808;12.482;2023-04-01T04:09:06;7.00;99.90
34646;DHT22;20857;47.808;12.482;2023-04-01T04:11:31;7.10;99.90
34646;DHT22;20857;47.808;12.482;2023-04-01T04:13:58;7.10;99.90
34646;DHT22;20857;47.808;12.482;2023-04-01T04:16:23;9.00;99.90
34646;DHT22;20857;47.808;12.482;2023-04-01T04:18:49;8.40;99.90
34646;DHT22;20857;47.808;12.482;2023-04-01T04:21:16;8.50;99.90
34646;DHT22;20857;47.808;12.482;2023-04-01T04:23:41;9.20;99.90
34646;DHT22;20857;47.808;12.482;2023-04-01T04:26:08;9.30;99.90
34646;DHT22;20857;47.808;12.482;2023-04-01T04:28:34;8.50;99.90
34646;DHT22;20857;47.808;12.482;2023-04-01T04:31:00;8.80;99.90
34646;DHT22;20857;47.808;12.482;2023-04-01T04:33:26;7.10;99.90
34646;DHT22;20857;47.808;12.482;2023-04-01T04:35:53;7.30;99.90
34646;DHT22;20857;47.808;12.482;2023-04-01T04:38:19;7.10;99.90
34646;DHT22;20857;47.808;12.482;2023-04-01T04:40:45;8.60;99.90
34646;DHT22;20857;47.808;12.482;2023-04-01T04:43:12;8.80;99.90
34646;DHT22;20857;47.808;12.482;2023-04-01T04:45:37;8.80;99.90
34646;DHT22;20857;47.808;12.482;2023-04-01T04:48:03;9.10;99.90
34646;DHT22;20857;47.808;12.482;2023-04-01T04:50:28;7.80;99.90
34646;DHT22;20857;47.808;12.482;2023-04-01T04:52:54;8.60;99.90
34646;DHT22;20857;47.808;12.482;2023-04-01T04:55:20;9.80;99.90
34646;DHT22;20857;47.808;12.482;2023-04-01T04:57:45;7.40;99.90
34646;DHT22;20857;47.808;12.482;2023-04-01T05:00:11;7.50;99.90
34646;DHT22;20857;47.808;12.482;2023-04-01T05:02:37;7.60;99.90
34646;DHT22;20857;47.808;12.482;2023-04-01T05:05:02;9.20;99.90
34646;DHT22;20857;47.808;12.482;2023-04-01T05:07:28;7.60;99.90
34646;DHT22;20857;47.808;12.482;2023-04-01T05:09:53;7.60;99.90
34646;DHT22;20857;47.808;12.482;2023-04-01T05:12:19;10.30;99.90
34646;DHT22;20857;47.808;12.482;2023-04-01T05:14:44;8.90;99.90
34646;DHT22;20857;47.808;12.482;2023-04-01T05:17:11;8.60;99.90
34646;DHT22;20857;47.808;12.482;2023-04-01T05:19:37;8.60;99.90
34646;DHT22;20857;47.808;12.482;2023-04-01T05:22:03;9.20;99.90
34646;DHT22;20857;47.808;12.482;2023-04-01T05:24:29;7.60;99.90
34646;DHT22;20857;47.808;12.482;2023-04-01T05:26:54;7.70;99.90
34646;DHT22;20857;47.808;12.482;2023-04-01T05:29:21;8.70;99.90
34646;DHT22;20857;47.808;12.482;2023-04-01T05:31:46;7.70;99.90
34646;DHT22;20857;47.808;12.482;2023-04-01T05:34:12;9.30;99.90
34646;DHT22;20857;47.808;12.482;2023-04-01T05:36:38;7.90;99.90
34646;DHT22;20857;47.808;12.482;2023-04-01T05:39:03;9.90;99.90
34646;DHT22;20857;47.808;12.482;2023-04-01T05:41:29;7.90;99.90
34646;DHT22;20857;47.808;12.482;2023-04-01T05:43:55;8.70;99.90
34646;DHT22;20857;47.808;12.482;2023-04-01T05:46:20;10.60;99.90
34646;DHT22;20857;47.808;12.482;2023-04-01T05:48:46;8.50;99.90
34646;DHT22;20857;47.808;12.482;2023-04-01T05:51:14;10.10;99.90
34646;DHT22;20857;47.808;12.482;2023-04-01T05:53:40;8.00;99.90
34646;DHT22;20857;47.808;12.482;2023-04-01T05:56:06;8.20;99.90
34646;DHT22;20857;47.808;12.482;2023-04-01T05:58:32;8.30;99.90
34646;DHT22;20857;47.808;12.482;2023-04-01T06:01:01;8.30;99.90
34646;DHT22;20857;47.808;12.482;2023-04-01T06:03:27;8.40;99.90
34646;DHT22;20857;47.808;12.482;2023-04-01T06:05:53;8.50;99.90
34646;DHT22;20857;47.808;12.482;2023-04-01T06:08:18;9.50;99.90
34646;DHT22;20857;47.808;12.482;2023-04-01T06:13:22;8.70;99.90
34646;DHT22;20857;47.808;12.482;2023-04-01T06:15:52;8.80;99.90
34646;DHT22;20857;47.808;12.482;2023-04-01T06:26:39;8.90;99.90
34646;DHT22;20857;47.808;12.482;2023-04-01T06:35:02;8.80;99.90
34646;DHT22;20857;47.808;12.482;2023-04-01T06:37:19;8.90;99.90
34646;DHT22;20857;47.808;12.482;2023-04-01T06:40:27;9.00;99.90
34646;DHT22;20857;47.808;12.482;2023-04-01T06:42:50;9.10;99.90
34646;DHT22;20857;47.808;12.482;2023-04-01T06:45:20;9.10;99.90
34646;DHT22;20857;47.808;12.482;2023-04-01T06:47:59;9.40;99.90
34646;DHT22;20857;47.808;12.482;2023-04-01T06:50:41;9.00;99.90
34646;DHT22;20857;47.808;12.482;2023-04-01T06:53:12;9.00;99.90
34646;DHT22;20857;47.808;12.482;2023-04-01T06:55:44;10.10;99.90
34646;DHT22;20857;47.808;12.482;2023-04-01T06:58:19;9.70;99.90
34646;DHT22;20857;47.808;12.482;2023-04-01T07:00:46;9.50;99.90
34646;DHT22;20857;47.808;12.482;2023-04-01T07:03:18;9.40;99.90
34646;DHT22;20857;47.808;12.482;2023-04-01T07:05:45;9.70;99.90
34646;DHT22;20857;47.808;12.482;2023-04-01T07:08:12;9.80;99.90
34646;DHT22;20857;47.808;12.482;2023-04-01T07:13:15;9.80;99.90
34646;DHT22;20857;47.808;12.482;2023-04-01T07:15:44;10.10;99.90
34646;DHT22;20857;47.808;12.482;2023-04-01T07:18:14;10.00;99.90
34646;DHT22;20857;47.808;12.482;2023-04-01T07:20:41;10.20;99.90
34646;DHT22;20857;47.808;12.482;2023-04-01T07:23:10;12.00;99.90
34646;DHT22;20857;47.808;12.482;2023-04-01T07:25:39;10.70;99.90
34646;DHT22;20857;47.808;12.482;2023-04-01T07:28:11;10.70;99.90
34646;DHT22;20857;47.808;12.482;2023-04-01T07:33:23;10.70;99.90
34646;DHT22;20857;47.808;12.482;2023-04-01T07:35:55;10.80;99.90
34646;DHT22;20857;47.808;12.482;2023-04-01T07:46:09;11.10;99.90
34646;DHT22;20857;47.808;12.482;2023-04-01T07:48:53;11.00;99.90
34646;DHT22;20857;47.808;12.482;2023-04-01T07:54:17;10.70;99.90
34646;DHT22;20857;47.808;12.482;2023-04-01T07:56:58;10.80;99.90
34646;DHT22;20857;47.808;12.482;2023-04-01T08:15:21;10.20;99.90
34646;DHT22;20857;47.808;12.482;2023-04-01T08:18:02;10.20;99.90
34646;DHT22;20857;47.808;12.482;2023-04-01T08:20:42;10.30;99.90
34646;DHT22;20857;47.808;12.482;2023-04-01T08:23:15;10.40;99.90
34646;DHT22;20857;47.808;12.482;2023-04-01T08:25:46;10.50;99.90
34646;DHT22;20857;47.808;12.482;2023-04-01T08:29:00;10.50;99.90
34646;DHT22;20857;47.808;12.482;2023-04-01T08:33:44;10.70;99.90
34646;DHT22;20857;47.808;12.482;2023-04-01T08:38:51;10.70;99.90
34646;DHT22;20857;47.808;12.482;2023-04-01T08:44:00;10.70;99.90
34646;DHT22;20857;47.808;12.482;2023-04-01T08:46:48;10.80;99.90
34646;DHT22;20857;47.808;12.482;2023-04-01T08:55:04;11.40;99.90
34646;DHT22;20857;47.808;12.482;2023-04-01T09:05:05;12.30;99.90
34646;DHT22;20857;47.808;12.482;2023-04-01T09:10:28;12.80;99.90
34646;DHT22;20857;47.808;12.482;2023-04-01T09:18:24;13.20;99.90
34646;DHT22;20857;47.808;12.482;2023-04-01T09:29:01;12.80;99.90
34646;DHT22;20857;47.808;12.482;2023-04-01T09:34:08;12.90;99.90
34646;DHT22;20857;47.808;12.482;2023-04-01T09:44:32;12.80;99.90
34646;DHT22;20857;47.808;12.482;2023-04-01T09:47:01;13.10;99.90
34646;DHT22;20857;47.808;12.482;2023-04-01T09:54:27;13.80;99.90
34646;DHT22;20857;47.808;12.482;2023-04-01T10:02:15;14.40;99.90
34646;DHT22;20857;47.808;12.482;2023-04-01T10:12:49;14.50;99.90
34646;DHT22;20857;47.808;12.482;2023-04-01T10:20:46;13.80;98.60
34646;DHT22;20857;47.808;12.482;2023-04-01T10:26:11;13.70;99.90
34646;DHT22;20857;47.808;12.482;2023-04-01T10:31:14;13.60;99.00
34646;DHT22;20857;47.808;12.482;2023-04-01T10:33:50;13.80;99.90
34646;DHT22;20857;47.808;12.482;2023-04-01T10:47:12;14.70;98.60
34646;DHT22;20857;47.808;12.482;2023-04-01T11:19:22;13.70;97.60
34646;DHT22;20857;47.808;12.482;2023-04-01T11:24:46;13.90;97.70
34646;DHT22;20857;47.808;12.482;2023-04-01T11:27:25;14.10;98.40
34646;DHT22;20857;47.808;12.482;2023-04-01T11:35:12;14.20;96.80
34646;DHT22;20857;47.808;12.482;2023-04-01T11:40:27;13.50;97.00
34646;DHT22;20857;47.808;12.482;2023-04-01T11:53:26;12.90;99.90
34646;DHT22;20857;47.808;12.482;2023-04-01T11:58:27;13.00;99.90
34646;DHT22;20857;47.808;12.482;2023-04-01T12:06:19;12.70;99.90
34646;DHT22;20857;47.808;12.482;2023-04-01T12:17:02;12.00;99.90
34646;DHT22;20857;47.808;12.482;2023-04-01T12:22:39;12.30;99.90
34646;DHT22;20857;47.808;12.482;2023-04-01T12:32:55;13.20;99.90
34646;DHT22;20857;47.808;12.482;2023-04-01T12:37:56;13.70;99.90
34646;DHT22;20857;47.808;12.482;2023-04-01T12:45:29;13.40;99.90
34646;DHT22;20857;47.808;12.482;2023-04-01T12:55:38;12.10;99.90
34646;DHT22;20857;47.808;12.482;2023-04-01T13:14:24;11.40;99.90
34646;DHT22;20857;47.808;12.482;2023-04-01T13:16:58;11.60;99.90
34646;DHT22;20857;47.808;12.482;2023-04-01T13:19:36;12.10;99.90
34646;DHT22;20857;47.808;12.482;2023-04-01T13:25:13;11.80;99.90
34646;DHT22;20857;47.808;12.482;2023-04-01T13:27:44;12.10;99.90
34646;DHT22;20857;47.808;12.482;2023-04-01T13:43:16;10.80;99.90
34646;DHT22;20857;47.808;12.482;2023-04-01T13:48:20;11.00;99.90
34646;DHT22;20857;47.808;12.482;2023-04-01T13:53:27;10.90;99.90
34646;DHT22;20857;47.808;12.482;2023-04-01T13:55:57;10.90;99.90
34646;DHT22;20857;47.808;12.482;2023-04-01T14:01:15;10.70;99.90
34646;DHT22;20857;47.808;12.482;2023-04-01T14:21:46;10.80;99.90
34646;DHT22;20857;47.808;12.482;2023-04-01T14:27:08;11.00;99.90
34646;DHT22;20857;47.808;12.482;2023-04-01T14:29:37;11.20;99.90
34646;DHT22;20857;47.808;12.482;2023-04-01T14:48:21;11.10;99.90
34646;DHT22;20857;47.808;12.482;2023-04-01T14:50:52;11.00;99.90
34646;DHT22;20857;47.808;12.482;2023-04-01T14:53:35;11.10;99.90
34646;DHT22;20857;47.808;12.482;2023-04-01T14:56:03;10.70;99.90
34646;DHT22;20857;47.808;12.482;2023-04-01T14:58:43;10.60;99.90
34646;DHT22;20857;47.808;12.482;2023-04-01T15:03:56;10.40;99.90
34646;DHT22;20857;47.808;12.482;2023-04-01T15:08:57;10.10;99.90
34646;DHT22;20857;47.808;12.482;2023-04-01T15:11:35;10.10;99.90
34646;DHT22;20857;47.808;12.482;2023-04-01T15:17:11;9.90;99.90
34646;DHT22;20857;47.808;12.482;2023-04-01T15:19:41;9.80;99.90
34646;DHT22;20857;47.808;12.482;2023-04-01T15:27:49;9.60;99.90
34646;DHT22;20857;47.808;12.482;2023-04-01T15:30:33;9.30;99.90
34646;DHT22;20857;47.808;12.482;2023-04-01T15:38:26;9.20;99.90
34646;DHT22;20857;47.808;12.482;2023-04-01T15:43:40;9.20;99.90
34646;DHT22;20857;47.808;12.482;2023-04-01T15:53:47;10.00;99.90
34646;DHT22;20857;47.808;12.482;2023-04-01T15:58:44;8.80;99.90
34646;DHT22;20857;47.808;12.482;2023-04-01T16:01:15;8.70;99.90
34646;DHT22;20857;47.808;12.482;2023-04-01T16:21:24;8.80;99.90
34646;DHT22;20857;47.808;12.482;2023-04-01T16:23:57;8.80;99.90
34646;DHT22;20857;47.808;12.482;2023-04-01T16:37:01;9.20;99.90
34646;DHT22;20857;47.808;12.482;2023-04-01T16:39:42;9.40;99.90
34646;DHT22;20857;47.808;12.482;2023-04-01T16:42:12;9.40;99.90
34646;DHT22;20857;47.808;12.482;2023-04-01T16:44:53;9.50;99.90
34646;DHT22;20857;47.808;12.482;2023-04-01T16:50:19;9.60;99.90
34646;DHT22;20857;47.808;12.482;2023-04-01T16:55:18;9.50;99.90
34646;DHT22;20857;47.808;12.482;2023-04-01T16:57:46;9.60;99.90
34646;DHT22;20857;47.808;12.482;2023-04-01T17:05:49;9.50;99.90
34646;DHT22;20857;47.808;12.482;2023-04-01T17:11:08;9.50;99.90
34646;DHT22;20857;47.808;12.482;2023-04-01T17:18:58;9.50;99.90
34646;DHT22;20857;47.808;12.482;2023-04-01T17:31:45;9.30;99.90
34646;DHT22;20857;47.808;12.482;2023-04-01T17:34:23;9.20;99.90
34646;DHT22;20857;47.808;12.482;2023-04-01T17:37:04;9.20;99.90
34646;DHT22;20857;47.808;12.482;2023-04-01T17:39:41;9.20;99.90
34646;DHT22;20857;47.808;12.482;2023-04-01T17:42:55;9.20;99.90
34646;DHT22;20857;47.808;12.482;2023-04-01T17:47:40;9.20;99.90
34646;DHT22;20857;47.808;12.482;2023-04-01T18:08:29;9.20;99.90
34646;DHT22;20857;47.808;12.482;2023-04-01T18:18:42;9.20;99.90
34646;DHT22;20857;47.808;12.482;2023-04-01T18:21:19;9.20;99.90
34646;DHT22;20857;47.808;12.482;2023-04-01T18:23:57;9.20;99.90
34646;DHT22;20857;47.808;12.482;2023-04-01T18:26:24;9.20;99.90
34646;DHT22;20857;47.808;12.482;2023-04-01T18:29:04;9.20;99.90
34646;DHT22;20857;47.808;12.482;2023-04-01T18:31:37;9.20;99.90
34646;DHT22;20857;47.808;12.482;2023-04-01T18:34:13;9.20;99.90
34646;DHT22;20857;47.808;12.482;2023-04-01T18:37:00;9.20;99.90
34646;DHT22;20857;47.808;12.482;2023-04-01T18:39:40;9.20;99.90
34646;DHT22;20857;47.808;12.482;2023-04-01T18:42:08;9.20;99.90
34646;DHT22;20857;47.808;12.482;2023-04-01T18:55:17;9.20;99.90
34646;DHT22;20857;47.808;12.482;2023-04-01T19:00:22;9.20;99.90
34646;DHT22;20857;47.808;12.482;2023-04-01T19:05:36;9.30;99.90
34646;DHT22;20857;47.808;12.482;2023-04-01T19:08:22;9.30;99.90
34646;DHT22;20857;47.808;12.482;2023-04-01T19:10:53;9.40;99.90
34646;DHT22;20857;47.808;12.482;2023-04-01T19:13:35;9.30;99.90
34646;DHT22;20857;47.808;12.482;2023-04-01T19:16:12;9.30;99.90
34646;DHT22;20857;47.808;12.482;2023-04-01T19:18:45;9.30;99.90
34646;DHT22;20857;47.808;12.482;2023-04-01T19:21:14;9.30;99.90
34646;DHT22;20857;47.808;12.482;2023-04-01T19:23:58;9.30;99.90
34646;DHT22;20857;47.808;12.482;2023-04-01T19:26:34;9.20;99.90
34646;DHT22;20857;47.808;12.482;2023-04-01T19:31:51;9.30;99.90
34646;DHT22;20857;47.808;12.482;2023-04-01T19:52:17;9.40;99.90
34646;DHT22;20857;47.808;12.482;2023-04-01T19:57:38;9.30;99.90
34646;DHT22;20857;47.808;12.482;2023-04-01T20:01:07;9.30;99.90
34646;DHT22;20857;47.808;12.482;2023-04-01T20:03:05;9.20;99.90
34646;DHT22;20857;47.808;12.482;2023-04-01T20:16:11;9.10;99.90
34646;DHT22;20857;47.808;12.482;2023-04-01T20:21:16;9.10;99.90
34646;DHT22;20857;47.808;12.482;2023-04-01T20:26:10;8.90;99.90
34646;DHT22;20857;47.808;12.482;2023-04-01T20:31:31;8.90;99.90
34646;DHT22;20857;47.808;12.482;2023-04-01T20:46:29;8.90;99.90
34646;DHT22;20857;47.808;12.482;2023-04-01T20:51:53;9.00;99.90
34646;DHT22;20857;47.808;12.482;2023-04-01T20:54:24;9.20;99.90
34646;DHT22;20857;47.808;12.482;2023-04-01T20:57:00;9.20;99.90
34646;DHT22;20857;47.808;12.482;2023-04-01T21:07:50;9.20;99.90
34646;DHT22;20857;47.808;12.482;2023-04-01T21:23:20;9.10;99.90
34646;DHT22;20857;47.808;12.482;2023-04-01T21:25:54;9.20;99.90
34646;DHT22;20857;47.808;12.482;2023-04-01T21:33:37;9.20;99.90
34646;DHT22;20857;47.808;12.482;2023-04-01T21:36:13;9.10;99.90
34646;DHT22;20857;47.808;12.482;2023-04-01T21:39:04;9.10;99.90
34646;DHT22;20857;47.808;12.482;2023-04-01T21:41:51;9.00;99.90
34646;DHT22;20857;47.808;12.482;2023-04-01T21:47:15;9.10;99.90
34646;DHT22;20857;47.808;12.482;2023-04-01T22:00:47;9.10;99.90
34646;DHT22;20857;47.808;12.482;2023-04-01T22:03:09;9.10;99.90
34646;DHT22;20857;47.808;12.482;2023-04-01T22:08:36;9.10;99.90
34646;DHT22;20857;47.808;12.482;2023-04-01T22:11:12;9.20;99.90
34646;DHT22;20857;47.808;12.482;2023-04-01T22:23:58;9.00;99.90
34646;DHT22;20857;47.808;12.482;2023-04-01T22:26:35;9.10;99.90
34646;DHT22;20857;47.808;12.482;2023-04-01T22:29:09;9.10;99.90
34646;DHT22;20857;47.808;12.482;2023-04-01T22:42:07;9.20;99.90
34646;DHT22;20857;47.808;12.482;2023-04-01T22:44:39;11.50;99.90
34646;DHT22;20857;47.808;12.482;2023-04-01T22:47:11;9.20;99.90
34646;DHT22;20857;47.808;12.482;2023-04-01T22:54:49;9.30;99.90
34646;DHT22;20857;47.808;12.482;2023-04-01T23:00:04;9.30;99.90
34646;DHT22;20857;47.808;12.482;2023-04-01T23:02:36;9.20;99.90
34646;DHT22;20857;47.808;12.482;2023-04-01T23:05:03;9.10;99.90
34646;DHT22;20857;47.808;12.482;2023-04-01T23:10:59;9.10;99.90
34646;DHT22;20857;47.808;12.482;2023-04-01T23:13:00;9.60;99.90
34646;DHT22;20857;47.808;12.482;2023-04-01T23:15:26;9.10;99.90
34646;DHT22;20857;47.808;12.482;2023-04-01T23:20:47;9.10;99.90
34646;DHT22;20857;47.808;12.482;2023-04-01T23:23:19;9.10;99.90
34646;DHT22;20857;47.808;12.482;2023-04-01T23:26:01;9.60;99.90
34646;DHT22;20857;47.808;12.482;2023-04-01T23:28:44;9.10;99.90
34646;DHT22;20857;47.808;12.482;2023-04-01T23:31:30;9.00;99.90
34646;DHT22;20857;47.808;12.482;2023-04-01T23:33:57;8.90;99.90
34646;DHT22;20857;47.808;12.482;2023-04-01T23:36:23;8.80;99.90
34646;DHT22;20857;47.808;12.482;2023-04-01T23:38:49;10.10;99.90
34646;DHT22;20857;47.808;12.482;2023-04-01T23:41:19;9.40;99.90
34646;DHT22;20857;47.808;12.482;2023-04-01T23:43:45;8.70;99.90
34646;DHT22;20857;47.808;12.482;2023-04-01T23:46:16;10.00;99.90
34646;DHT22;20857;47.808;12.482;2023-04-01T23:48:43;8.90;99.90
34646;DHT22;20857;47.808;12.482;2023-04-01T23:51:20;8.60;99.90
34646;DHT22;20857;47.808;12.482;2023-04-01T23:53:47;8.60;99.90
34646;DHT22;20857;47.808;12.482;2023-04-01T23:56:16;8.70;99.90
34646;DHT22;20857;47.808;12.482;2023-04-01T23:58:43;9.20;99.90
